TimeEDT,TemperatureF,Dew PointF,Humidity,Sea Level PressureIn,VisibilityMPH,Wind Direction,Wind SpeedMPH,Gust SpeedMPH,PrecipitationIn,Events,Conditions,WindDirDegrees,DateUTC
12:52 AM,73.0,66.0,79,30.10,10.0,South,9.2,-,N/A,,Partly Cloudy,170,2013-06-22 04:52:00
1:52 AM,72.0,64.9,78,30.13,10.0,Calm,Calm,-,N/A,,Clear,0,2013-06-22 05:52:00
2:52 AM,66.9,64.9,93,30.13,9.0,SSW,3.5,-,N/A,,Clear,200,2013-06-22 06:52:00
3:52 AM,69.1,64.9,87,30.12,10.0,SSW,5.8,-,N/A,,Clear,210,2013-06-22 07:52:00
4:52 AM,70.0,66.0,87,30.11,9.0,Calm,Calm,-,N/A,,Scattered Clouds,0,2013-06-22 08:52:00
5:52 AM,66.0,64.9,96,30.12,10.0,South,5.8,-,N/A,,Scattered Clouds,190,2013-06-22 09:52:00
6:52 AM,69.1,66.9,93,30.13,10.0,South,6.9,-,N/A,,Clear,190,2013-06-22 10:52:00
7:52 AM,72.0,68.0,87,30.15,10.0,SSW,4.6,-,N/A,,Clear,200,2013-06-22 11:52:00
8:52 AM,75.9,69.1,79,30.16,8.0,SW,8.1,-,N/A,,Clear,220,2013-06-22 12:52:00
9:52 AM,79.0,70.0,74,30.18,9.0,SW,8.1,-,N/A,,Mostly Cloudy,220,2013-06-22 13:52:00
10:52 AM,82.0,71.1,69,30.17,10.0,SSW,8.1,-,N/A,,Mostly Cloudy,200,2013-06-22 14:52:00
11:52 AM,82.9,70.0,65,30.17,10.0,SSW,8.1,-,N/A,,Scattered Clouds,200,2013-06-22 15:52:00
12:52 PM,84.9,69.1,59,30.15,10.0,South,11.5,-,N/A,,Scattered Clouds,190,2013-06-22 16:52:00
1:52 PM,87.1,69.1,55,30.13,10.0,South,9.2,-,N/A,,Scattered Clouds,180,2013-06-22 17:52:00
2:52 PM,87.1,69.1,55,30.12,10.0,SSW,6.9,-,N/A,,Scattered Clouds,210,2013-06-22 18:52:00
3:52 PM,82.9,66.9,58,30.10,10.0,North,8.1,-,N/A,,Mostly Cloudy,350,2013-06-22 19:52:00
4:52 PM,77.0,72.0,84,30.08,4.0,NNW,11.5,-,0.18,Rain,Rain,340,2013-06-22 20:52:00
5:52 PM,77.0,69.1,76,30.07,4.0,Variable,5.8,-,0.81,Rain,Rain,0,2013-06-22 21:52:00
6:52 PM,70.0,66.0,87,30.09,4.0,WSW,10.4,-,0.50,Rain,Rain,240,2013-06-22 22:52:00
7:08 PM,71.6,69.8,94,30.11,4.0,West,16.1,-,0.21,Rain,Rain,270,2013-06-22 23:08:00
7:52 PM,71.1,69.1,93,30.10,7.0,West,10.4,-,0.25,Rain,Light Rain,260,2013-06-22 23:52:00
8:52 PM,70.0,69.1,97,30.09,6.0,Calm,Calm,-,0.00,,Mostly Cloudy,0,2013-06-23 00:52:00
9:52 PM,68.0,66.9,96,30.07,5.0,South,4.6,-,N/A,,Mostly Cloudy,170,2013-06-23 01:52:00
10:52 PM,70.0,68.0,93,30.09,9.0,Calm,Calm,-,N/A,,Clear,0,2013-06-23 02:52:00
11:52 PM,70.0,68.0,93,30.10,9.0,ENE,3.5,-,N/A,,Clear,70,2013-06-23 03:52:00